createdAt,value
2022-11-06T00:01:43.640Z,10.07
2022-11-06T00:04:30.113Z,8.73
2022-11-06T00:07:16.636Z,8.51
2022-11-06T00:10:03.559Z,8.76
2022-11-06T00:12:49.444Z,9.12
2022-11-06T00:15:36.520Z,9.18
2022-11-06T00:18:25.983Z,8.79
2022-11-06T00:21:13.967Z,8.41
2022-11-06T00:24:01.090Z,9.00
2022-11-06T00:26:54.623Z,8.56
2022-11-06T00:29:41.037Z,8.89
2022-11-06T00:32:27.323Z,8.74
2022-11-06T00:35:15.791Z,8.60
2022-11-06T00:38:02.014Z,8.53
2022-11-06T00:40:48.641Z,8.91
2022-11-06T00:43:35.980Z,8.46
2022-11-06T00:46:21.966Z,9.27
2022-11-06T00:49:08.225Z,8.93
2022-11-06T00:51:54.650Z,9.08
2022-11-06T00:54:41.240Z,8.80
2022-11-06T00:57:28.863Z,8.22
2022-11-06T01:00:18.167Z,8.45
2022-11-06T01:03:04.066Z,9.03
2022-11-06T01:05:50.868Z,9.09
2022-11-06T01:08:38.070Z,8.90
2022-11-06T01:11:46.581Z,9.13
2022-11-06T01:14:36.378Z,9.07
2022-11-06T01:17:24.872Z,9.49
2022-11-06T01:20:11.387Z,9.46
2022-11-06T01:22:57.678Z,9.00
2022-11-06T01:25:43.493Z,9.24
2022-11-06T01:28:30.492Z,9.60
2022-11-06T01:31:18.110Z,9.63
2022-11-06T01:34:04.582Z,9.92
2022-11-06T01:36:52.376Z,8.62
2022-11-06T01:39:39.969Z,9.52
2022-11-06T01:42:26.628Z,9.84
2022-11-06T01:45:19.540Z,8.91
2022-11-06T01:48:06.305Z,8.92
2022-11-06T01:50:53.756Z,9.08
2022-11-06T01:53:40.441Z,8.76
2022-11-06T01:56:30.811Z,8.55
2022-11-06T01:59:19.168Z,8.58
2022-11-06T02:02:05.767Z,8.81
2022-11-06T02:04:53.899Z,8.73
2022-11-06T02:07:40.381Z,8.63
2022-11-06T02:10:27.896Z,8.82
2022-11-06T02:13:32.920Z,8.90
2022-11-06T02:16:27.506Z,8.50
2022-11-06T02:19:17.147Z,8.32
2022-11-06T02:22:22.792Z,8.33
2022-11-06T02:25:13.733Z,9.17
2022-11-06T02:28:08.553Z,8.13
2022-11-06T02:30:54.256Z,8.46
2022-11-06T02:33:52.390Z,8.91
2022-11-06T02:36:45.431Z,8.18
2022-11-06T02:39:31.510Z,8.28
2022-11-06T02:42:18.360Z,8.22
2022-11-06T02:45:04.867Z,8.54
2022-11-06T02:47:51.593Z,8.51
2022-11-06T02:50:39.879Z,8.85
2022-11-06T02:53:26.401Z,9.62
2022-11-06T02:56:14.288Z,9.11
2022-11-06T02:59:30.669Z,8.88
2022-11-06T03:02:28.429Z,8.84
2022-11-06T03:05:18.386Z,8.95
2022-11-06T03:08:18.455Z,8.56
2022-11-06T03:11:23.483Z,8.33
2022-11-06T03:14:14.458Z,8.66
2022-11-06T03:17:06.760Z,8.71
2022-11-06T03:19:56.802Z,8.73
2022-11-06T03:22:52.454Z,8.54
2022-11-06T03:25:41.661Z,8.47
2022-11-06T03:28:29.787Z,8.40
2022-11-06T03:31:16.356Z,8.65
2022-11-06T03:34:04.115Z,8.33
2022-11-06T03:36:52.792Z,8.65
2022-11-06T03:39:41.410Z,8.19
2022-11-06T03:42:28.668Z,8.52
2022-11-06T03:45:16.671Z,8.62
2022-11-06T03:48:03.375Z,9.01
2022-11-06T03:51:15.658Z,8.83
2022-11-06T03:54:03.703Z,8.83
2022-11-06T03:56:51.639Z,9.27
2022-11-06T03:59:39.875Z,8.87
2022-11-06T04:02:25.771Z,8.28
2022-11-06T04:05:14.006Z,8.23
2022-11-06T04:08:19.036Z,8.67
2022-11-06T04:11:24.420Z,8.65
2022-11-06T04:14:10.815Z,8.65
2022-11-06T04:16:59.643Z,8.52
2022-11-06T04:19:49.821Z,8.27
2022-11-06T04:22:42.094Z,8.75
2022-11-06T04:26:05.536Z,9.41
2022-11-06T04:28:54.813Z,9.20
2022-11-06T04:31:43.339Z,8.84
2022-11-06T04:34:34.884Z,8.20
2022-11-06T04:37:32.238Z,8.48
2022-11-06T04:40:23.024Z,8.62
2022-11-06T04:43:19.128Z,8.31
2022-11-06T04:46:05.331Z,8.15
2022-11-06T04:48:51.828Z,8.14
2022-11-06T04:51:38.733Z,8.59
2022-11-06T04:54:26.470Z,8.31
2022-11-06T04:57:12.795Z,8.33
2022-11-06T04:59:59.055Z,8.14
2022-11-06T05:02:45.086Z,8.13
2022-11-06T05:05:31.669Z,8.31
2022-11-06T05:08:19.908Z,8.72
2022-11-06T05:11:06.791Z,8.23
2022-11-06T05:13:55.506Z,8.17
2022-11-06T05:16:42.425Z,8.35
2022-11-06T05:19:28.771Z,8.08
2022-11-06T05:22:34.114Z,8.85
2022-11-06T05:25:20.305Z,8.06
2022-11-06T05:28:07.160Z,8.36
2022-11-06T05:30:55.636Z,8.77
2022-11-06T05:33:41.793Z,8.48
2022-11-06T05:36:28.416Z,8.52
2022-11-06T05:39:15.912Z,8.68
2022-11-06T05:42:02.593Z,9.10
2022-11-06T05:44:49.954Z,9.11
2022-11-06T05:47:36.579Z,9.00
2022-11-06T05:50:23.035Z,9.55
2022-11-06T05:53:09.694Z,9.10
2022-11-06T05:55:55.761Z,8.56
2022-11-06T05:58:43.712Z,9.03
2022-11-06T06:01:30.163Z,8.64
2022-11-06T06:04:20.672Z,8.87
2022-11-06T06:07:07.106Z,8.44
2022-11-06T06:09:53.522Z,8.80
2022-11-06T06:12:40.218Z,8.32
2022-11-06T06:15:26.958Z,8.48
2022-11-06T06:18:13.348Z,8.52
2022-11-06T06:21:02.062Z,8.49
2022-11-06T06:23:48.726Z,8.73
2022-11-06T06:26:36.799Z,8.86
2022-11-06T06:29:24.957Z,8.84
2022-11-06T06:32:12.843Z,8.11
2022-11-06T06:34:58.944Z,8.70
2022-11-06T06:37:52.796Z,8.58
2022-11-06T06:40:42.854Z,8.11
2022-11-06T06:43:30.491Z,8.53
2022-11-06T06:46:22.480Z,8.28
2022-11-06T06:49:16.870Z,8.65
2022-11-06T06:52:04.980Z,8.81
2022-11-06T06:54:51.618Z,8.40
2022-11-06T06:57:40.456Z,8.16
2022-11-06T07:00:30.719Z,8.95
2022-11-06T07:03:27.496Z,8.76
2022-11-06T07:06:22.525Z,8.62
2022-11-06T07:12:09.911Z,8.80
2022-11-06T07:14:58.500Z,8.46
2022-11-06T07:17:45.634Z,8.66
2022-11-06T07:20:34.830Z,8.15
2022-11-06T07:23:21.769Z,8.44
2022-11-06T07:26:14.101Z,8.22
2022-11-06T07:29:02.645Z,8.35
2022-11-06T07:31:54.070Z,8.61
2022-11-06T07:34:42.755Z,8.99
2022-11-06T07:37:30.936Z,8.67
2022-11-06T07:40:17.731Z,8.78
2022-11-06T07:43:14.473Z,8.82
2022-11-06T07:52:07.783Z,8.17
2022-11-06T07:55:06.526Z,8.65
2022-11-06T07:57:53.735Z,8.27
2022-11-06T08:00:52.830Z,8.34
2022-11-06T08:03:44.761Z,8.13
2022-11-06T08:06:34.503Z,8.18
2022-11-06T08:09:25.488Z,8.37
2022-11-06T08:12:21.499Z,8.55
2022-11-06T08:15:09.984Z,8.49
2022-11-06T08:17:56.669Z,8.53
2022-11-06T08:20:43.515Z,7.98
2022-11-06T08:23:31.146Z,8.47
2022-11-06T08:26:20.926Z,8.64
2022-11-06T08:29:17.108Z,9.18
2022-11-06T08:32:07.896Z,9.07
2022-11-06T08:34:55.341Z,8.48
2022-11-06T08:37:44.622Z,9.07
2022-11-06T08:40:33.548Z,8.48
2022-11-06T08:43:23.609Z,8.60
2022-11-06T08:46:15.553Z,8.30
2022-11-06T08:52:11.457Z,8.63
2022-11-06T08:55:08.529Z,9.41
2022-11-06T08:57:57.265Z,8.67
2022-11-06T09:00:46.505Z,9.13
2022-11-06T09:03:32.682Z,9.05
2022-11-06T09:06:22.032Z,9.53
2022-11-06T09:09:17.468Z,8.76
2022-11-06T09:12:08.584Z,8.46
2022-11-06T09:14:56.245Z,8.99
2022-11-06T09:17:43.573Z,9.00
2022-11-06T09:20:30.979Z,9.33
2022-11-06T09:23:21.414Z,9.24
2022-11-06T09:26:12.788Z,9.66
2022-11-06T09:29:02.784Z,9.54
2022-11-06T09:34:51.723Z,10.02
2022-11-06T09:37:39.508Z,9.31
2022-11-06T09:40:33.791Z,9.90
2022-11-06T09:46:34.771Z,10.39
2022-11-06T09:49:42.490Z,9.52
2022-11-06T09:52:47.038Z,9.84
2022-11-06T09:55:43.503Z,9.51
2022-11-06T09:58:37.858Z,9.89
2022-11-06T10:01:29.628Z,10.43
2022-11-06T10:04:37.122Z,10.03
2022-11-06T10:07:26.712Z,9.87
2022-11-06T10:10:22.775Z,9.79
2022-11-06T10:13:20.281Z,10.54
2022-11-06T10:16:28.674Z,10.35
2022-11-06T10:19:37.695Z,10.08
2022-11-06T10:22:26.871Z,10.76
2022-11-06T10:25:21.652Z,10.92
2022-11-06T10:28:25.718Z,11.24
2022-11-06T10:31:53.549Z,11.62
2022-11-06T10:34:52.708Z,11.08
2022-11-06T10:38:12.346Z,11.58
2022-11-06T10:41:03.512Z,11.31
2022-11-06T10:43:58.507Z,11.37
2022-11-06T10:47:15.638Z,11.34
2022-11-06T10:50:12.884Z,11.81
2022-11-06T10:53:05.492Z,11.69
2022-11-06T10:56:11.276Z,11.95
2022-11-06T10:59:03.596Z,11.97
2022-11-06T11:01:50.678Z,12.13
2022-11-06T11:07:44.493Z,11.48
2022-11-06T11:10:36.531Z,11.37
2022-11-06T11:13:26.665Z,10.95
2022-11-06T11:19:26.638Z,10.97
2022-11-06T11:22:14.659Z,11.14
2022-11-06T11:25:01.906Z,10.90
2022-11-06T11:27:58.690Z,11.13
2022-11-06T11:30:55.669Z,11.79
2022-11-06T11:33:54.607Z,12.07
2022-11-06T11:36:47.422Z,11.39
2022-11-06T11:39:36.138Z,11.07
2022-11-06T11:42:23.495Z,11.66
2022-11-06T11:45:15.526Z,11.90
2022-11-06T11:48:11.662Z,11.81
2022-11-06T11:50:58.718Z,11.76
2022-11-06T11:57:09.873Z,11.10
2022-11-06T12:00:01.552Z,10.56
2022-11-06T12:02:52.749Z,11.33
2022-11-06T12:05:43.031Z,11.99
2022-11-06T12:08:29.499Z,10.97
2022-11-06T12:11:21.394Z,11.46
2022-11-06T12:14:28.798Z,11.90
2022-11-06T12:17:24.456Z,11.20
2022-11-06T12:20:18.197Z,11.54
2022-11-06T12:23:16.920Z,11.67
2022-11-06T12:26:12.531Z,10.55
2022-11-06T12:29:27.753Z,10.71
2022-11-06T12:32:23.873Z,11.24
2022-11-06T12:35:21.275Z,11.30
2022-11-06T12:38:29.456Z,11.03
2022-11-06T12:41:27.480Z,11.38
2022-11-06T12:44:19.444Z,11.64
2022-11-06T12:47:10.479Z,10.84
2022-11-06T12:50:04.693Z,11.43
2022-11-06T12:53:15.158Z,11.51
2022-11-06T12:56:11.674Z,12.20
2022-11-06T13:02:24.506Z,12.03
2022-11-06T13:05:14.484Z,12.46
2022-11-06T13:08:17.183Z,12.14
2022-11-06T13:11:10.948Z,12.62
2022-11-06T13:14:06.929Z,11.67
2022-11-06T13:17:12.500Z,11.28
2022-11-06T13:20:06.508Z,11.57
2022-11-06T13:23:08.742Z,11.38
2022-11-06T13:26:00.488Z,11.43
2022-11-06T13:28:57.127Z,11.81
2022-11-06T13:31:52.622Z,11.34
2022-11-06T13:34:41.935Z,11.77
2022-11-06T13:37:42.661Z,12.13
2022-11-06T13:40:39.489Z,11.32
2022-11-06T13:43:38.616Z,11.96
2022-11-06T13:46:31.073Z,11.32
2022-11-06T13:49:28.477Z,12.08
2022-11-06T13:52:23.536Z,11.15
2022-11-06T13:55:16.517Z,10.73
2022-11-06T13:58:05.526Z,11.57
2022-11-06T14:01:13.632Z,11.98
2022-11-06T14:04:07.858Z,12.51
2022-11-06T14:07:05.519Z,12.67
2022-11-06T14:10:06.452Z,12.63
2022-11-06T14:12:55.007Z,12.19
2022-11-06T14:15:42.758Z,11.51
2022-11-06T14:21:27.810Z,11.12
2022-11-06T14:24:19.939Z,11.70
2022-11-06T14:27:23.441Z,12.43
2022-11-06T14:30:18.640Z,11.91
2022-11-06T14:33:12.544Z,12.18
2022-11-06T14:36:00.472Z,12.67
2022-11-06T14:38:51.512Z,12.36
2022-11-06T14:41:42.566Z,12.28
2022-11-06T14:44:40.711Z,12.03
2022-11-06T14:47:53.209Z,11.79
2022-11-06T14:50:40.510Z,11.38
2022-11-06T14:53:30.431Z,11.85
2022-11-06T14:56:30.514Z,11.80
2022-11-06T14:59:24.581Z,11.78
2022-11-06T15:02:26.347Z,10.95
2022-11-06T15:05:20.048Z,11.82
2022-11-06T15:11:32.495Z,11.25
2022-11-06T15:14:24.364Z,11.67
2022-11-06T15:17:20.466Z,12.34
2022-11-06T15:20:16.464Z,12.94
2022-11-06T15:23:19.525Z,13.05
2022-11-06T15:26:27.434Z,13.20
2022-11-06T15:29:29.774Z,13.43
2022-11-06T15:32:21.664Z,13.06
2022-11-06T15:35:11.174Z,13.40
2022-11-06T15:44:13.786Z,13.39
2022-11-06T15:47:02.461Z,13.21
2022-11-06T15:53:14.157Z,13.22
2022-11-06T15:56:02.679Z,13.44
2022-11-06T15:59:11.657Z,13.45
2022-11-06T16:02:05.761Z,13.37
2022-11-06T16:04:58.491Z,13.14
2022-11-06T16:07:47.078Z,13.04
2022-11-06T16:10:36.580Z,12.43
2022-11-06T16:13:25.433Z,11.74
2022-11-06T16:16:39.799Z,12.35
2022-11-06T16:19:48.736Z,12.91
2022-11-06T16:22:45.593Z,13.29
2022-11-06T16:25:32.989Z,13.46
2022-11-06T16:28:22.431Z,13.56
2022-11-06T16:31:25.680Z,13.46
2022-11-06T16:34:44.301Z,13.44
2022-11-06T16:37:40.601Z,13.22
2022-11-06T16:40:50.456Z,13.22
2022-11-06T16:47:22.569Z,11.42
2022-11-06T16:50:38.684Z,11.37
2022-11-06T16:53:36.449Z,10.27
2022-11-06T16:56:33.931Z,10.04
2022-11-06T16:59:28.505Z,9.94
2022-11-06T17:02:24.855Z,10.02
2022-11-06T17:05:18.983Z,10.72
2022-11-06T17:08:28.442Z,11.73
2022-11-06T17:11:20.688Z,11.18
2022-11-06T17:14:23.579Z,11.08
2022-11-06T17:17:25.664Z,11.69
2022-11-06T17:20:15.023Z,11.38
2022-11-06T17:23:02.534Z,10.97
2022-11-06T17:25:54.542Z,10.56
2022-11-06T17:28:46.932Z,11.79
2022-11-06T17:31:37.507Z,11.81
2022-11-06T17:34:25.119Z,12.32
2022-11-06T17:37:15.543Z,12.18
2022-11-06T17:43:06.709Z,12.25
2022-11-06T17:46:08.024Z,12.38
2022-11-06T17:49:07.454Z,12.13
2022-11-06T17:52:05.431Z,12.35
2022-11-06T18:00:54.001Z,12.22
2022-11-06T18:03:45.760Z,12.12
2022-11-06T18:06:34.987Z,12.12
2022-11-06T18:09:26.649Z,12.08
2022-11-06T18:12:13.943Z,12.05
2022-11-06T18:15:07.482Z,11.55
2022-11-06T18:17:56.628Z,10.35
2022-11-06T18:20:49.831Z,11.46
2022-11-06T18:23:41.642Z,11.71
2022-11-06T18:26:29.385Z,11.48
2022-11-06T18:29:16.481Z,11.83
2022-11-06T18:32:14.641Z,11.12
2022-11-06T18:35:14.822Z,9.96
2022-11-06T18:41:11.483Z,11.15
2022-11-06T18:44:09.424Z,10.48
2022-11-06T18:47:02.670Z,11.08
2022-11-06T18:49:51.835Z,11.40
2022-11-06T18:52:57.478Z,11.67
2022-11-06T18:55:46.509Z,11.58
2022-11-06T18:58:36.828Z,11.36
2022-11-06T19:07:32.656Z,11.16
2022-11-06T19:10:29.608Z,11.20
2022-11-06T19:13:33.859Z,11.51
2022-11-06T19:16:36.598Z,11.69
2022-11-06T19:19:26.431Z,11.76
2022-11-06T19:22:13.957Z,11.64
2022-11-06T19:28:01.454Z,11.50
2022-11-06T19:30:50.681Z,11.23
2022-11-06T19:33:44.897Z,11.18
2022-11-06T19:36:41.445Z,11.26
2022-11-06T19:39:28.060Z,11.34
2022-11-06T19:42:15.442Z,11.22
2022-11-06T19:45:09.340Z,11.28
2022-11-06T19:48:05.497Z,11.38
2022-11-06T19:50:59.705Z,11.30
2022-11-06T19:53:57.079Z,11.19
2022-11-06T19:57:29.535Z,10.77
2022-11-06T20:00:16.501Z,10.77
2022-11-06T20:03:15.024Z,10.20
2022-11-06T20:06:08.184Z,10.27
2022-11-06T20:09:04.686Z,9.44
2022-11-06T20:11:54.186Z,10.07
2022-11-06T20:14:42.419Z,9.68
2022-11-06T20:17:28.640Z,9.29
2022-11-06T20:20:16.477Z,8.70
2022-11-06T20:23:05.848Z,9.25
2022-11-06T20:25:54.666Z,9.52
2022-11-06T20:28:48.633Z,9.66
2022-11-06T20:31:44.844Z,8.03
2022-11-06T20:34:33.457Z,7.99
2022-11-06T20:40:13.340Z,10.17
2022-11-06T20:43:13.922Z,10.37
2022-11-06T20:48:59.416Z,10.24
2022-11-06T20:52:11.989Z,10.41
2022-11-06T20:54:54.483Z,10.47
2022-11-06T20:57:49.643Z,10.49
2022-11-06T21:00:36.122Z,10.28
2022-11-06T21:03:29.500Z,10.40
2022-11-06T21:06:26.713Z,10.66
2022-11-06T21:09:16.166Z,10.91
2022-11-06T21:12:03.906Z,10.88
2022-11-06T21:14:59.740Z,10.78
2022-11-06T21:17:52.122Z,10.68
2022-11-06T21:20:46.277Z,9.97
2022-11-06T21:26:37.458Z,8.64
2022-11-06T21:29:36.484Z,8.97
2022-11-06T21:32:29.181Z,9.49
2022-11-06T21:35:17.488Z,9.39
2022-11-06T21:38:06.113Z,8.29
2022-11-06T21:40:53.424Z,8.04
2022-11-06T21:43:49.418Z,8.28
2022-11-06T21:46:45.056Z,7.81
2022-11-06T21:49:35.730Z,9.05
2022-11-06T21:52:44.271Z,9.76
2022-11-06T21:55:53.942Z,10.01
2022-11-06T21:58:51.949Z,10.07
2022-11-06T22:01:38.538Z,10.17
2022-11-06T22:04:25.579Z,10.31
2022-11-06T22:07:13.081Z,10.18
2022-11-06T22:10:00.811Z,10.14
2022-11-06T22:12:51.483Z,10.37
2022-11-06T22:15:39.939Z,10.26
2022-11-06T22:18:33.076Z,10.06
2022-11-06T22:21:21.490Z,10.02
2022-11-06T22:24:07.869Z,9.84
2022-11-06T22:26:55.449Z,9.67
2022-11-06T22:29:41.890Z,9.59
2022-11-06T22:32:28.611Z,9.96
2022-11-06T22:35:15.731Z,10.57
2022-11-06T22:38:03.323Z,10.71
2022-11-06T22:40:57.015Z,10.68
2022-11-06T22:43:44.732Z,10.70
2022-11-06T22:46:32.030Z,10.80
2022-11-06T22:49:19.716Z,10.72
2022-11-06T22:52:05.750Z,10.76
2022-11-06T22:54:52.510Z,10.14
2022-11-06T22:57:39.715Z,9.33
2022-11-06T23:00:26.145Z,9.60
2022-11-06T23:03:12.626Z,9.35
2022-11-06T23:06:02.164Z,10.21
2022-11-06T23:08:49.505Z,10.67
2022-11-06T23:11:35.774Z,10.91
2022-11-06T23:14:21.748Z,10.40
2022-11-06T23:17:09.426Z,10.61
2022-11-06T23:19:55.965Z,10.89
2022-11-06T23:22:42.404Z,11.04
2022-11-06T23:25:29.011Z,11.11
2022-11-06T23:28:15.590Z,11.06
2022-11-06T23:31:05.204Z,10.89
2022-11-06T23:33:55.334Z,10.29
2022-11-06T23:36:42.395Z,10.52
2022-11-06T23:39:32.479Z,10.80
2022-11-06T23:42:20.983Z,11.03
2022-11-06T23:45:26.199Z,10.51
2022-11-06T23:48:13.374Z,10.53
2022-11-06T23:50:59.707Z,10.51
2022-11-06T23:53:45.817Z,9.51
2022-11-06T23:56:34.748Z,10.51
2022-11-06T23:59:20.791Z,10.52
